createdAt,value
2019-01-28T05:41:36.179Z,0
2019-01-28T05:42:16.736Z,0
2019-01-28T05:42:57.293Z,0
2019-01-28T05:43:37.839Z,0
2019-01-28T05:44:18.397Z,0
2019-01-28T05:44:58.957Z,0
2019-01-28T05:45:39.520Z,0
2019-01-28T05:46:20.062Z,0
2019-01-28T05:47:00.612Z,0
2019-01-28T05:47:41.258Z,0
2019-01-28T05:48:21.816Z,0
2019-01-28T05:49:02.366Z,0
2019-01-28T05:49:42.930Z,0
2019-01-28T05:50:23.483Z,0
2019-01-28T05:51:04.042Z,0
2019-01-28T05:51:44.597Z,0
2019-01-28T05:52:25.161Z,0
2019-01-28T05:53:05.723Z,0
2019-01-28T05:53:46.284Z,0
2019-01-28T05:54:26.907Z,0
2019-01-28T05:55:07.412Z,0
2019-01-28T05:55:47.978Z,0
2019-01-28T05:56:28.530Z,0
2019-01-28T05:57:09.076Z,0
2019-01-28T05:57:49.675Z,0
2019-01-28T05:58:30.246Z,0
2019-01-28T05:59:10.801Z,0
2019-01-28T05:59:51.406Z,0
2019-01-28T06:00:31.923Z,0
2019-01-28T06:01:12.480Z,0
2019-01-28T06:01:53.022Z,0
2019-01-28T06:02:33.590Z,0
2019-01-28T06:03:14.145Z,0
2019-01-28T06:03:54.707Z,0
2019-01-28T06:04:35.277Z,0
2019-01-28T06:05:15.837Z,0
2019-01-28T06:05:56.387Z,0
2019-01-28T06:06:36.930Z,0
2019-01-28T06:07:17.481Z,0
2019-01-28T06:07:58.043Z,0
2019-01-28T06:08:38.599Z,0
2019-01-28T06:09:19.151Z,0
2019-01-28T06:09:59.723Z,0
2019-01-28T06:10:40.291Z,0
2019-01-28T06:11:20.845Z,0
2019-01-28T06:12:01.405Z,0
2019-01-28T06:12:41.988Z,0
2019-01-28T06:13:22.620Z,0
2019-01-28T06:14:03.164Z,0
2019-01-28T06:14:43.731Z,0
2019-01-28T06:15:24.289Z,0
2019-01-28T06:16:04.846Z,0
2019-01-28T06:16:45.413Z,0
2019-01-28T06:17:25.962Z,0
2019-01-28T06:18:06.516Z,0
2019-01-28T06:18:47.066Z,0
2019-01-28T06:19:27.622Z,0
2019-01-28T06:20:08.183Z,0
2019-01-28T06:20:48.732Z,0
2019-01-28T06:21:29.321Z,0
2019-01-28T06:22:09.870Z,0
2019-01-28T06:22:50.419Z,0
2019-01-28T06:23:30.991Z,0
2019-01-28T06:24:11.545Z,0
2019-01-28T06:24:52.109Z,0
2019-01-28T06:25:32.656Z,0
2019-01-28T06:26:13.210Z,0
2019-01-28T06:26:53.789Z,0
2019-01-28T06:27:34.387Z,0
2019-01-28T06:28:15.002Z,0
2019-01-28T06:28:55.784Z,0
2019-01-28T06:29:36.390Z,0
2019-01-28T06:30:17.017Z,0
2019-01-28T06:30:57.631Z,0
2019-01-28T06:31:38.197Z,0
2019-01-28T06:32:18.958Z,0
2019-01-28T06:32:59.504Z,0
2019-01-28T06:33:40.076Z,0
2019-01-28T06:34:20.652Z,0
2019-01-28T06:35:01.219Z,0
2019-01-28T06:35:41.770Z,0
2019-01-28T06:36:22.322Z,0
2019-01-28T06:37:02.876Z,0
2019-01-28T06:37:43.413Z,0
2019-01-28T06:38:24.248Z,0
2019-01-28T06:39:04.814Z,0
2019-01-28T06:39:45.370Z,0
2019-01-28T06:40:25.927Z,0
2019-01-28T06:41:06.531Z,0
2019-01-28T06:41:47.102Z,0
2019-01-28T06:42:27.703Z,0
2019-01-28T06:43:08.281Z,0
2019-01-28T06:43:48.881Z,0
2019-01-28T06:44:29.441Z,0
2019-01-28T06:45:09.994Z,0
2019-01-28T06:45:50.551Z,0
2019-01-28T06:46:31.120Z,0
2019-01-28T06:47:11.669Z,0
2019-01-28T06:47:52.231Z,0
2019-01-28T06:48:32.775Z,0
2019-01-28T06:49:13.344Z,0
2019-01-28T06:49:53.907Z,0
2019-01-28T06:50:34.479Z,0
2019-01-28T06:51:15.082Z,0
2019-01-28T06:51:55.595Z,0
2019-01-28T06:52:36.152Z,0
2019-01-28T06:53:16.708Z,0
2019-01-28T06:53:57.267Z,0
2019-01-28T06:54:37.833Z,5
2019-01-28T06:55:18.394Z,5
2019-01-28T06:55:58.939Z,5
2019-01-28T06:56:39.511Z,5
2019-01-28T06:57:20.102Z,5
2019-01-28T06:58:00.686Z,5
2019-01-28T06:58:41.248Z,5
2019-01-28T06:59:21.818Z,5
2019-01-28T07:00:02.367Z,5
2019-01-28T07:00:42.921Z,5
2019-01-28T07:01:23.508Z,5
2019-01-28T07:02:04.067Z,5
2019-01-28T07:02:44.674Z,5
2019-01-28T07:03:25.223Z,5
2019-01-28T07:04:05.795Z,5
2019-01-28T07:04:46.372Z,5
2019-01-28T07:05:27.013Z,5
2019-01-28T07:06:07.496Z,10
2019-01-28T07:06:48.120Z,10
2019-01-28T07:07:28.677Z,10
2019-01-28T07:08:09.234Z,10
2019-01-28T07:08:49.784Z,10
2019-01-28T07:09:30.343Z,10
2019-01-28T07:10:10.930Z,10
2019-01-28T07:10:51.490Z,10
2019-01-28T07:11:32.035Z,10
2019-01-28T07:12:12.588Z,10
2019-01-28T07:12:53.159Z,10
2019-01-28T07:13:33.748Z,15
2019-01-28T07:14:14.296Z,15
2019-01-28T07:14:54.860Z,15
2019-01-28T07:15:35.422Z,15
2019-01-28T07:16:16.016Z,15
2019-01-28T07:16:56.587Z,15
2019-01-28T07:17:37.163Z,15
2019-01-28T07:18:17.714Z,15
2019-01-28T07:18:58.272Z,15
2019-01-28T07:19:38.833Z,15
2019-01-28T07:20:19.404Z,15
2019-01-28T07:21:00.022Z,15
2019-01-28T07:21:40.570Z,15
2019-01-28T07:22:21.147Z,20
2019-01-28T07:23:01.730Z,20
2019-01-28T07:23:42.286Z,20
2019-01-28T07:24:22.859Z,20
2019-01-28T07:25:03.422Z,20
2019-01-28T07:25:43.990Z,20
2019-01-28T07:26:24.557Z,25
2019-01-28T07:27:05.159Z,20
2019-01-28T07:27:45.713Z,20
2019-01-28T07:28:26.265Z,20
2019-01-28T07:29:06.867Z,20
2019-01-28T07:29:47.433Z,20
2019-01-28T07:30:27.997Z,25
2019-01-28T07:31:08.570Z,20
2019-01-28T07:31:49.115Z,25
2019-01-28T07:32:29.680Z,25
2019-01-28T07:33:10.241Z,25
2019-01-28T07:33:50.799Z,25
2019-01-28T07:34:31.370Z,25
2019-01-28T07:35:11.926Z,25
2019-01-28T07:35:52.476Z,25
2019-01-28T07:36:33.023Z,30
2019-01-28T07:37:13.600Z,30
2019-01-28T07:37:54.153Z,30
2019-01-28T07:38:34.765Z,30
2019-01-28T07:39:15.326Z,30
2019-01-28T07:39:55.917Z,35
2019-01-28T07:40:36.481Z,35
2019-01-28T07:41:17.047Z,35
2019-01-28T07:41:57.597Z,35
2019-01-28T07:42:38.152Z,35
2019-01-28T07:43:18.755Z,35
2019-01-28T07:43:59.310Z,35
2019-01-28T07:44:39.874Z,35
2019-01-28T07:45:20.458Z,35
2019-01-28T07:46:01.031Z,35
2019-01-28T07:46:41.634Z,35
2019-01-28T07:47:22.205Z,35
2019-01-28T07:48:03.353Z,35
2019-01-28T07:48:43.328Z,35
2019-01-28T07:49:23.903Z,35
2019-01-28T07:50:04.454Z,35
2019-01-28T07:50:45.019Z,35
2019-01-28T07:51:25.703Z,35
2019-01-28T07:52:06.262Z,35
2019-01-28T07:52:46.802Z,35
2019-01-28T07:53:27.373Z,35
2019-01-28T07:54:07.920Z,35
2019-01-28T07:54:48.493Z,35
2019-01-28T07:55:29.049Z,35
2019-01-28T07:56:09.609Z,35
2019-01-28T07:56:50.165Z,35
2019-01-28T07:57:30.721Z,35
2019-01-28T07:58:11.283Z,40
2019-01-28T07:58:51.833Z,35
2019-01-28T07:59:32.392Z,40
2019-01-28T08:00:12.958Z,40
2019-01-28T08:00:53.518Z,40
2019-01-28T08:01:34.067Z,40
2019-01-28T08:02:14.634Z,40
2019-01-28T08:02:55.191Z,40
2019-01-28T08:03:35.750Z,40
2019-01-28T08:04:16.321Z,40
2019-01-28T08:04:56.877Z,40
2019-01-28T08:05:37.424Z,40
2019-01-28T08:06:18.017Z,40
2019-01-28T08:06:59.427Z,40
2019-01-28T08:07:39.118Z,45
2019-01-28T08:08:19.687Z,45
2019-01-28T08:09:00.302Z,45
2019-01-28T08:09:40.864Z,45
2019-01-28T08:10:21.416Z,50
2019-01-28T08:11:01.978Z,50
2019-01-28T08:11:42.525Z,50
2019-01-28T08:12:23.118Z,50
2019-01-28T08:13:03.689Z,50
2019-01-28T08:13:44.301Z,55
2019-01-28T08:14:24.857Z,55
2019-01-28T08:15:05.424Z,55
2019-01-28T08:15:45.979Z,55
2019-01-28T08:16:26.552Z,55
2019-01-28T08:17:07.096Z,55
2019-01-28T08:17:47.652Z,55
2019-01-28T08:18:28.213Z,55
2019-01-28T08:19:08.780Z,60
2019-01-28T08:19:49.332Z,60
2019-01-28T08:20:29.901Z,60
2019-01-28T08:21:10.469Z,60
2019-01-28T08:21:51.041Z,60
2019-01-28T08:22:31.604Z,60
2019-01-28T08:23:12.198Z,60
2019-01-28T08:23:52.763Z,60
2019-01-28T08:24:33.318Z,60
2019-01-28T08:25:13.883Z,60
2019-01-28T08:25:54.471Z,60
2019-01-28T08:26:35.015Z,60
2019-01-28T08:27:15.573Z,60
2019-01-28T08:27:56.143Z,65
2019-01-28T08:28:37.172Z,65
2019-01-28T08:29:17.315Z,65
2019-01-28T08:29:57.880Z,65
2019-01-28T08:30:38.451Z,65
2019-01-28T08:31:19.013Z,65
2019-01-28T08:31:59.569Z,65
2019-01-28T08:32:40.124Z,65
2019-01-28T08:33:20.701Z,70
2019-01-28T08:34:01.280Z,70
2019-01-28T08:34:41.835Z,70
2019-01-28T08:35:22.388Z,70
2019-01-28T08:36:02.975Z,70
2019-01-28T08:36:43.552Z,75
2019-01-28T08:37:24.116Z,75
2019-01-28T08:38:04.688Z,75
2019-01-28T08:38:45.235Z,75
2019-01-28T08:39:25.788Z,80
2019-01-28T08:40:06.359Z,80
2019-01-28T08:40:46.933Z,85
2019-01-28T08:41:27.490Z,90
2019-01-28T08:42:08.161Z,95
2019-01-28T08:42:48.727Z,160
2019-01-28T08:43:29.295Z,315
2019-01-28T08:44:09.840Z,530
2019-01-28T08:44:50.418Z,680
2019-01-28T08:45:30.972Z,680
2019-01-28T08:46:11.543Z,645
2019-01-28T08:46:52.112Z,610
2019-01-28T08:47:33.092Z,610
2019-01-28T08:48:18.171Z,570
2019-01-28T08:48:54.222Z,535
2019-01-28T08:49:34.798Z,440
2019-01-28T08:50:15.358Z,465
2019-01-28T08:50:55.940Z,510
2019-01-28T08:51:36.475Z,670
2019-01-28T08:52:17.071Z,705
2019-01-28T08:52:57.625Z,765
2019-01-28T08:53:38.182Z,855
2019-01-28T08:54:18.743Z,820
2019-01-28T08:54:59.297Z,760
2019-01-28T08:55:39.864Z,730
2019-01-28T08:56:20.436Z,700
2019-01-28T08:57:01.004Z,680
2019-01-28T08:57:41.567Z,740
2019-01-28T08:58:22.219Z,660
2019-01-28T08:59:02.779Z,570
2019-01-28T08:59:43.355Z,485
2019-01-28T09:00:23.925Z,485
2019-01-28T09:01:04.488Z,585
2019-01-28T09:01:45.069Z,585
2019-01-28T09:02:25.627Z,590
2019-01-28T09:03:06.190Z,615
2019-01-28T09:03:46.763Z,640
2019-01-28T09:04:27.339Z,595
2019-01-28T09:05:07.907Z,525
2019-01-28T09:05:48.479Z,515
2019-01-28T09:06:29.038Z,485
2019-01-28T09:07:09.601Z,425
2019-01-28T09:07:50.166Z,400
2019-01-28T09:08:30.713Z,440
2019-01-28T09:09:11.308Z,580
2019-01-28T09:09:51.834Z,625
2019-01-28T09:10:32.386Z,680
2019-01-28T09:11:13.111Z,710
2019-01-28T09:11:53.716Z,720
2019-01-28T09:12:34.299Z,740
2019-01-28T09:13:14.860Z,705
2019-01-28T09:13:55.430Z,650
2019-01-28T09:14:35.995Z,605
2019-01-28T09:15:16.544Z,565
2019-01-28T09:15:57.106Z,635
2019-01-28T09:16:37.676Z,655
2019-01-28T09:17:18.253Z,685
2019-01-28T09:17:58.809Z,755
2019-01-28T09:18:39.370Z,720
2019-01-28T09:19:19.941Z,635
2019-01-28T09:20:00.505Z,485
2019-01-28T09:20:41.048Z,420
2019-01-28T09:21:21.607Z,440
2019-01-28T09:22:02.155Z,600
2019-01-28T09:22:42.739Z,650
2019-01-28T09:23:23.315Z,640
2019-01-28T09:24:03.889Z,535
2019-01-28T09:24:44.601Z,405
2019-01-28T09:25:25.124Z,375
2019-01-28T09:26:06.616Z,510
2019-01-28T09:26:46.286Z,695
2019-01-28T09:27:26.860Z,745
2019-01-28T09:28:07.596Z,735
2019-01-28T09:28:48.151Z,730
2019-01-28T09:29:28.706Z,775
2019-01-28T09:30:09.261Z,815
2019-01-28T09:30:49.843Z,820
2019-01-28T09:31:30.419Z,790
2019-01-28T09:32:10.992Z,770
2019-01-28T09:32:51.553Z,705
2019-01-28T09:33:32.117Z,730
2019-01-28T09:34:12.668Z,870
2019-01-28T09:34:53.274Z,855
2019-01-28T09:35:33.862Z,815
2019-01-28T09:36:14.424Z,810
2019-01-28T09:36:54.988Z,860
2019-01-28T09:37:35.572Z,870
2019-01-28T09:38:16.139Z,865
2019-01-28T09:38:56.703Z,910
2019-01-28T09:39:37.270Z,870
2019-01-28T09:40:17.850Z,765
2019-01-28T09:40:58.417Z,585
2019-01-28T09:41:38.999Z,545
2019-01-28T09:42:19.580Z,560
2019-01-28T09:43:00.165Z,575
2019-01-28T09:43:40.723Z,545
2019-01-28T09:44:21.283Z,525
2019-01-28T09:45:01.873Z,425
2019-01-28T09:45:42.459Z,340
2019-01-28T09:46:23.029Z,280
2019-01-28T09:47:03.598Z,245
2019-01-28T09:47:44.182Z,220
2019-01-28T09:48:24.742Z,215
2019-01-28T09:49:05.298Z,205
2019-01-28T09:49:45.883Z,200
2019-01-28T09:50:26.491Z,195
2019-01-28T09:51:07.063Z,195
2019-01-28T09:51:47.641Z,200
2019-01-28T09:52:28.245Z,200
2019-01-28T09:53:08.899Z,200
2019-01-28T09:53:49.481Z,195
2019-01-28T09:54:30.146Z,190
2019-01-28T09:55:10.728Z,180
2019-01-28T09:55:51.294Z,185
2019-01-28T09:56:31.863Z,180
2019-01-28T09:57:12.604Z,175
2019-01-28T09:57:53.102Z,170
2019-01-28T09:58:33.698Z,180
2019-01-28T09:59:14.276Z,175
2019-01-28T09:59:54.839Z,170
2019-01-28T10:00:35.416Z,170
2019-01-28T10:01:16.019Z,165
2019-01-28T10:01:56.568Z,155
2019-01-28T10:02:37.153Z,145
2019-01-28T10:03:17.745Z,145
2019-01-28T10:03:58.309Z,140
2019-01-28T10:04:38.865Z,135
2019-01-28T10:05:19.423Z,135
2019-01-28T10:06:00.013Z,135
2019-01-28T10:06:40.553Z,135
2019-01-28T10:07:21.115Z,135
2019-01-28T10:08:01.677Z,140
2019-01-28T10:08:42.239Z,140
2019-01-28T10:09:22.801Z,145
2019-01-28T10:10:03.363Z,145
2019-01-28T10:10:43.937Z,140
2019-01-28T10:11:24.486Z,140
2019-01-28T10:12:05.054Z,140
2019-01-28T10:12:45.628Z,135
2019-01-28T10:13:26.213Z,130
2019-01-28T10:14:06.789Z,120
2019-01-28T10:14:47.372Z,115
2019-01-28T10:15:28.822Z,110
2019-01-28T10:16:08.517Z,110
2019-01-28T10:16:49.088Z,110
2019-01-28T10:17:29.648Z,115
2019-01-28T10:18:10.243Z,120
2019-01-28T10:18:51.006Z,115
2019-01-28T10:19:31.736Z,110
2019-01-28T10:20:12.345Z,110
2019-01-28T10:20:52.919Z,110
2019-01-28T10:21:33.502Z,100
2019-01-28T10:22:14.065Z,100
2019-01-28T10:22:54.631Z,95
2019-01-28T10:23:35.203Z,100
2019-01-28T10:24:15.775Z,105
2019-01-28T10:24:56.349Z,105
2019-01-28T10:25:36.917Z,105
2019-01-28T10:26:17.487Z,100
2019-01-28T10:26:58.056Z,100
2019-01-28T10:27:38.625Z,100
2019-01-28T10:28:19.184Z,100
2019-01-28T10:28:59.915Z,100
2019-01-28T10:29:40.461Z,100
2019-01-28T10:30:21.019Z,100
2019-01-28T10:31:01.573Z,100
2019-01-28T10:31:42.152Z,100
2019-01-28T10:32:22.708Z,100
2019-01-28T10:33:03.306Z,95
2019-01-28T10:33:43.863Z,90
2019-01-28T10:34:24.444Z,90
2019-01-28T10:35:05.052Z,85
2019-01-28T10:35:45.627Z,80
2019-01-28T10:36:26.194Z,75
2019-01-28T10:37:06.751Z,75
2019-01-28T10:37:47.342Z,70
2019-01-28T10:38:27.916Z,75
2019-01-28T10:39:08.479Z,75
2019-01-28T10:39:49.042Z,70
2019-01-28T10:40:29.603Z,75
2019-01-28T10:41:10.197Z,75
2019-01-28T10:41:50.767Z,75
2019-01-28T10:42:31.396Z,75
2019-01-28T10:43:11.910Z,75
2019-01-28T10:43:52.481Z,70
2019-01-28T10:44:33.092Z,70
2019-01-28T10:45:13.656Z,70
2019-01-28T10:45:54.238Z,70
2019-01-28T10:46:34.787Z,70
2019-01-28T10:47:15.398Z,70
2019-01-28T10:48:00.467Z,70
2019-01-28T10:48:36.550Z,70
2019-01-28T10:49:17.110Z,70
2019-01-28T10:49:57.671Z,70
2019-01-28T10:50:38.243Z,70
2019-01-28T10:51:18.815Z,70
2019-01-28T10:51:59.401Z,70
2019-01-28T10:52:39.978Z,70
2019-01-28T10:53:20.537Z,70
2019-01-28T10:54:01.099Z,70
2019-01-28T10:54:41.651Z,70
2019-01-28T10:55:22.211Z,70
2019-01-28T10:56:02.788Z,70
2019-01-28T10:56:43.369Z,70
2019-01-28T10:57:23.956Z,70
2019-01-28T10:58:04.508Z,70
2019-01-28T10:58:45.079Z,70
2019-01-28T10:59:25.646Z,70
2019-01-28T11:00:11.458Z,70
2019-01-28T11:00:46.743Z,70
2019-01-28T11:01:27.297Z,65
2019-01-28T11:02:07.890Z,70
2019-01-28T11:02:48.467Z,70
2019-01-28T11:03:29.033Z,70
2019-01-28T11:04:09.631Z,70
2019-01-28T11:04:50.173Z,70
2019-01-28T11:05:30.721Z,70
2019-01-28T11:06:11.279Z,65
2019-01-28T11:06:51.842Z,70
2019-01-28T11:07:32.415Z,70
2019-01-28T11:08:12.994Z,70
2019-01-28T11:08:53.572Z,65
2019-01-28T11:09:34.134Z,65
2019-01-28T11:10:14.690Z,70
2019-01-28T11:10:55.320Z,65
2019-01-28T11:11:35.888Z,70
2019-01-28T11:12:16.494Z,70
2019-01-28T11:12:56.961Z,65
2019-01-28T11:13:37.544Z,70
2019-01-28T11:14:18.171Z,70
2019-01-28T11:14:58.800Z,70
2019-01-28T11:15:39.257Z,75
2019-01-28T11:16:19.865Z,75
2019-01-28T11:17:00.483Z,70
2019-01-28T11:17:40.931Z,70
2019-01-28T11:18:21.543Z,70
2019-01-28T11:19:02.075Z,70
2019-01-28T11:19:42.622Z,70
2019-01-28T11:20:23.292Z,75
2019-01-28T11:21:03.912Z,80
2019-01-28T11:21:44.366Z,80
2019-01-28T11:22:24.939Z,85
2019-01-28T11:23:05.638Z,95
2019-01-28T11:23:46.170Z,85
2019-01-28T11:24:26.668Z,95
2019-01-28T11:25:07.358Z,95
2019-01-28T11:25:47.944Z,90
2019-01-28T11:26:28.417Z,85
2019-01-28T11:27:08.943Z,90
2019-01-28T11:27:49.626Z,80
2019-01-28T11:28:30.166Z,85
2019-01-28T11:29:10.606Z,90
2019-01-28T11:29:51.147Z,90
2019-01-28T11:30:31.781Z,95
2019-01-28T11:31:12.290Z,90
2019-01-28T11:31:52.888Z,100
2019-01-28T11:32:33.498Z,95
2019-01-28T11:33:13.975Z,90
2019-01-28T11:33:54.657Z,90
2019-01-28T11:34:35.137Z,90
2019-01-28T11:35:15.637Z,100
2019-01-28T11:36:04.695Z,100
2019-01-28T11:36:36.774Z,95
2019-01-28T11:37:17.346Z,90
2019-01-28T11:37:57.989Z,90
2019-01-28T11:38:38.451Z,85
2019-01-28T11:39:19.153Z,85
2019-01-28T11:39:59.630Z,90
2019-01-28T11:40:40.188Z,90
2019-01-28T11:41:20.759Z,90
2019-01-28T11:42:01.281Z,95
2019-01-28T11:42:41.873Z,90
2019-01-28T11:43:22.517Z,90
2019-01-28T11:44:02.974Z,85
2019-01-28T11:44:43.552Z,85
2019-01-28T11:45:24.191Z,85
2019-01-28T11:46:04.743Z,85
2019-01-28T11:46:45.324Z,80
2019-01-28T11:47:25.857Z,80
2019-01-28T11:48:06.386Z,75
2019-01-28T11:48:46.981Z,75
2019-01-28T11:49:27.662Z,75
2019-01-28T11:50:08.088Z,70
2019-01-28T11:50:55.801Z,65
2019-01-28T11:51:29.224Z,65
2019-01-28T11:52:09.774Z,60
2019-01-28T11:52:50.339Z,60
2019-01-28T11:53:30.912Z,60
2019-01-28T11:54:11.477Z,65
2019-01-28T11:54:52.042Z,60
2019-01-28T11:55:32.616Z,65
2019-01-28T11:56:13.165Z,60
2019-01-28T11:56:53.745Z,55
2019-01-28T11:57:34.348Z,55
2019-01-28T11:58:14.914Z,55
2019-01-28T11:58:55.520Z,55
2019-01-28T11:59:36.081Z,55
2019-01-28T12:00:16.649Z,50
2019-01-28T12:00:57.234Z,45
2019-01-28T12:01:37.803Z,45
2019-01-28T12:02:18.357Z,45
2019-01-28T12:02:58.935Z,45
2019-01-28T12:03:39.493Z,45
2019-01-28T12:04:20.053Z,45
2019-01-28T12:05:00.611Z,50
2019-01-28T12:05:41.153Z,55
2019-01-28T12:06:21.712Z,55
2019-01-28T12:07:02.261Z,50
2019-01-28T12:07:42.884Z,45
2019-01-28T12:08:23.432Z,35
2019-01-28T12:09:03.993Z,30
2019-01-28T12:09:44.564Z,25
2019-01-28T12:10:25.116Z,25
2019-01-28T12:11:05.738Z,25
2019-01-28T12:11:46.322Z,25
2019-01-28T12:12:26.897Z,30
2019-01-28T12:13:07.461Z,30
2019-01-28T12:13:48.041Z,30
2019-01-28T12:14:28.615Z,25
2019-01-28T12:15:09.172Z,30
2019-01-28T12:15:49.761Z,30
2019-01-28T12:16:30.332Z,35
2019-01-28T12:17:10.904Z,40
2019-01-28T12:17:51.474Z,45
2019-01-28T12:18:32.173Z,45
2019-01-28T12:19:14.159Z,45
2019-01-28T12:19:53.294Z,40
2019-01-28T12:20:33.860Z,40
2019-01-28T12:21:14.431Z,40
2019-01-28T12:21:54.992Z,45
2019-01-28T12:22:35.591Z,50
2019-01-28T12:23:16.122Z,55
2019-01-28T12:23:56.762Z,50
2019-01-28T12:24:37.321Z,55
2019-01-28T12:25:17.885Z,60
2019-01-28T12:25:58.446Z,55
2019-01-28T12:26:39.025Z,60
2019-01-28T12:27:19.586Z,70
2019-01-28T12:28:00.145Z,70
2019-01-28T12:28:40.708Z,70
2019-01-28T12:29:21.289Z,70
2019-01-28T12:30:01.901Z,70
2019-01-28T12:30:42.463Z,70
2019-01-28T12:31:23.021Z,70
2019-01-28T12:32:03.584Z,70
2019-01-28T12:32:44.134Z,75
2019-01-28T12:33:24.686Z,75
2019-01-28T12:34:05.240Z,80
2019-01-28T12:34:45.788Z,100
2019-01-28T12:35:26.367Z,105
2019-01-28T12:36:06.925Z,100
2019-01-28T12:36:47.477Z,85
2019-01-28T12:37:28.297Z,85
2019-01-28T12:38:08.952Z,85
2019-01-28T12:38:50.210Z,85
2019-01-28T12:39:30.227Z,85
2019-01-28T12:40:10.797Z,85
2019-01-28T12:40:51.339Z,90
2019-01-28T12:41:31.918Z,90
2019-01-28T12:42:12.481Z,95
2019-01-28T12:42:53.050Z,95
2019-01-28T12:43:33.618Z,95
2019-01-28T12:44:14.222Z,95
2019-01-28T12:44:54.726Z,95
2019-01-28T12:45:35.282Z,95
2019-01-28T12:46:15.840Z,90
2019-01-28T12:46:56.425Z,90
2019-01-28T12:47:37.227Z,90
2019-01-28T12:48:17.786Z,90
2019-01-28T12:48:58.361Z,90
2019-01-28T12:49:38.909Z,85
2019-01-28T12:50:19.521Z,85
2019-01-28T12:51:00.075Z,80
2019-01-28T12:51:40.643Z,75
2019-01-28T12:52:21.224Z,75
2019-01-28T12:53:01.805Z,70
2019-01-28T12:53:42.348Z,70
2019-01-28T12:54:22.923Z,65
2019-01-28T12:55:03.501Z,65
2019-01-28T12:55:44.072Z,60
2019-01-28T12:56:24.633Z,60
2019-01-28T12:57:05.207Z,60
2019-01-28T12:57:45.775Z,60
2019-01-28T12:58:26.337Z,60
2019-01-28T12:59:09.035Z,60
2019-01-28T12:59:47.457Z,55
2019-01-28T13:00:28.009Z,55
2019-01-28T13:01:08.570Z,50
2019-01-28T13:01:49.156Z,50
2019-01-28T13:02:29.711Z,45
2019-01-28T13:03:10.272Z,40
2019-01-28T13:03:50.847Z,40
2019-01-28T13:04:31.406Z,40
2019-01-28T13:05:11.963Z,40
2019-01-28T13:05:52.516Z,40
2019-01-28T13:06:33.069Z,40
2019-01-28T13:07:13.632Z,40
2019-01-28T13:07:54.191Z,40
2019-01-28T13:08:34.770Z,40
2019-01-28T13:09:15.341Z,40
2019-01-28T13:09:55.907Z,45
2019-01-28T13:10:36.472Z,45
2019-01-28T13:11:17.021Z,45
2019-01-28T13:11:57.578Z,45
2019-01-28T13:12:38.147Z,45
2019-01-28T13:13:18.757Z,45
2019-01-28T13:13:59.324Z,50
2019-01-28T13:14:39.887Z,50
2019-01-28T13:15:20.437Z,50
2019-01-28T13:16:00.993Z,50
2019-01-28T13:16:41.557Z,55
2019-01-28T13:17:22.135Z,55
2019-01-28T13:18:02.693Z,55
2019-01-28T13:18:43.298Z,50
2019-01-28T13:19:29.984Z,50
2019-01-28T13:20:04.421Z,45
2019-01-28T13:20:44.971Z,40
2019-01-28T13:21:25.510Z,35
2019-01-28T13:22:06.124Z,30
2019-01-28T13:22:46.700Z,30
2019-01-28T13:23:27.285Z,25
2019-01-28T13:24:07.846Z,25
2019-01-28T13:24:48.417Z,25
2019-01-28T13:25:28.984Z,25
2019-01-28T13:26:09.542Z,25
2019-01-28T13:26:50.101Z,30
2019-01-28T13:27:30.645Z,30
2019-01-28T13:28:11.205Z,35
2019-01-28T13:28:51.800Z,35
2019-01-28T13:29:32.349Z,40
2019-01-28T13:30:12.906Z,40
2019-01-28T13:30:53.451Z,40
2019-01-28T13:31:34.034Z,40
2019-01-28T13:32:14.600Z,45
2019-01-28T13:32:55.157Z,45
2019-01-28T13:33:35.721Z,45
2019-01-28T13:34:16.272Z,45
2019-01-28T13:34:56.837Z,45
2019-01-28T13:35:37.393Z,40
2019-01-28T13:36:17.944Z,40
2019-01-28T13:36:58.499Z,40
2019-01-28T13:37:39.058Z,40
2019-01-28T13:38:19.628Z,35
2019-01-28T13:39:00.181Z,35
2019-01-28T13:39:40.746Z,35
2019-01-28T13:40:21.314Z,35
2019-01-28T13:41:01.864Z,30
2019-01-28T13:41:42.428Z,30
2019-01-28T13:42:23.012Z,30
2019-01-28T13:43:03.554Z,30
2019-01-28T13:43:44.110Z,30
2019-01-28T13:44:24.667Z,25
2019-01-28T13:45:05.266Z,25
2019-01-28T13:45:45.817Z,25
2019-01-28T13:46:26.373Z,25
2019-01-28T13:47:06.939Z,25
2019-01-28T13:47:47.530Z,20
2019-01-28T13:48:28.084Z,20
2019-01-28T13:49:08.648Z,20
2019-01-28T13:49:49.218Z,20
2019-01-28T13:50:29.785Z,20
2019-01-28T13:51:10.340Z,20
2019-01-28T13:51:50.905Z,20
2019-01-28T13:52:31.694Z,20
2019-01-28T13:53:12.022Z,20
2019-01-28T13:53:52.612Z,20
2019-01-28T13:54:33.171Z,20
2019-01-28T13:55:13.728Z,20
2019-01-28T13:55:54.288Z,20
2019-01-28T13:56:34.852Z,20
2019-01-28T13:57:15.426Z,20
2019-01-28T13:57:55.978Z,20
2019-01-28T13:58:36.554Z,20
2019-01-28T13:59:17.112Z,15
2019-01-28T13:59:57.674Z,15
2019-01-28T14:00:38.267Z,15
2019-01-28T14:01:18.834Z,15
2019-01-28T14:01:59.394Z,15
2019-01-28T14:02:39.979Z,15
2019-01-28T14:03:20.552Z,15
2019-01-28T14:04:01.118Z,10
2019-01-28T14:04:41.882Z,10
2019-01-28T14:05:23.071Z,10
2019-01-28T14:06:04.216Z,10
2019-01-28T14:06:45.232Z,10
2019-01-28T14:07:26.551Z,10
2019-01-28T14:08:07.830Z,10
2019-01-28T14:08:49.801Z,5
2019-01-28T14:09:31.140Z,5
2019-01-28T14:10:12.622Z,5
2019-01-28T14:10:53.778Z,5
2019-01-28T14:11:34.973Z,5
2019-01-28T14:12:16.127Z,5
2019-01-28T14:12:58.158Z,5
2019-01-28T14:13:39.503Z,5
2019-01-28T14:14:21.660Z,5
2019-01-28T14:15:02.721Z,5
2019-01-28T14:15:43.863Z,10
2019-01-28T14:16:24.894Z,10
2019-01-28T14:17:06.051Z,10
2019-01-28T14:17:47.168Z,10
2019-01-28T14:18:28.457Z,10
2019-01-28T14:19:09.672Z,10
2019-01-28T14:19:51.416Z,10
2019-01-28T14:20:32.374Z,10
2019-01-28T14:21:13.656Z,10
2019-01-28T14:21:55.772Z,10
2019-01-28T14:22:37.142Z,10
2019-01-28T14:23:18.285Z,10
2019-01-28T14:23:59.600Z,10
2019-01-28T14:24:40.777Z,10
2019-01-28T14:25:22.106Z,10
2019-01-28T14:26:03.379Z,10
2019-01-28T14:26:44.628Z,10
2019-01-28T14:27:25.900Z,10
2019-01-28T14:28:07.232Z,10
2019-01-28T14:28:48.536Z,10
2019-01-28T14:29:29.803Z,10
2019-01-28T14:30:11.154Z,10
2019-01-28T14:30:52.421Z,10
2019-01-28T14:31:33.715Z,10
2019-01-28T14:32:15.008Z,10
2019-01-28T14:32:56.238Z,10
2019-01-28T14:33:37.507Z,10
2019-01-28T14:34:19.486Z,10
2019-01-28T14:35:00.683Z,10
2019-01-28T14:35:42.041Z,10
2019-01-28T14:36:23.320Z,10
2019-01-28T14:37:04.598Z,10
2019-01-28T14:37:45.746Z,10
2019-01-28T14:38:27.072Z,10
2019-01-28T14:39:13.500Z,10
2019-01-28T14:39:49.815Z,10
2019-01-28T14:40:30.898Z,10
2019-01-28T14:41:12.553Z,10
2019-01-28T14:41:53.630Z,10
2019-01-28T14:42:35.651Z,10
2019-01-28T14:43:17.020Z,10
2019-01-28T14:43:59.080Z,10
2019-01-28T14:44:40.374Z,10
2019-01-28T14:45:21.567Z,10
2019-01-28T14:46:02.367Z,10
2019-01-28T14:46:43.305Z,10
2019-01-28T14:47:24.538Z,10
2019-01-28T14:48:05.845Z,10
2019-01-28T14:48:49.130Z,10
2019-01-28T14:49:32.203Z,10
2019-01-28T14:50:09.004Z,10
2019-01-28T14:50:50.053Z,10
2019-01-28T14:51:31.083Z,10
2019-01-28T14:52:11.999Z,10
2019-01-28T14:52:52.758Z,10
2019-01-28T14:53:34.680Z,10
2019-01-28T14:54:15.703Z,10
2019-01-28T14:54:56.856Z,10
2019-01-28T14:55:37.913Z,10
2019-01-28T14:56:19.131Z,10
2019-01-28T14:57:00.879Z,10
2019-01-28T14:57:42.734Z,10
2019-01-28T14:58:23.980Z,10
2019-01-28T14:59:05.160Z,10
2019-01-28T14:59:46.360Z,10
2019-01-28T15:00:26.924Z,10
2019-01-28T15:01:07.543Z,10
2019-01-28T15:01:48.052Z,10
2019-01-28T15:02:28.682Z,5
2019-01-28T15:03:09.313Z,5
2019-01-28T15:03:49.886Z,5
2019-01-28T15:04:30.447Z,5
2019-01-28T15:05:10.990Z,5
2019-01-28T15:05:51.557Z,5
2019-01-28T15:06:32.105Z,5
2019-01-28T15:07:12.665Z,5
2019-01-28T15:07:53.226Z,5
2019-01-28T15:08:33.875Z,0
2019-01-28T15:09:14.451Z,0
2019-01-28T15:09:55.018Z,0
2019-01-28T15:10:35.655Z,0
2019-01-28T15:11:16.226Z,0
2019-01-28T15:11:56.842Z,0
2019-01-28T15:12:44.240Z,0
2019-01-28T15:13:17.989Z,0
2019-01-28T15:13:58.547Z,0
2019-01-28T15:14:39.126Z,0
2019-01-28T15:15:19.691Z,0
2019-01-28T15:16:00.345Z,0
2019-01-28T15:16:40.926Z,0
2019-01-28T15:17:21.499Z,0
2019-01-28T15:18:02.079Z,0
2019-01-28T15:18:42.663Z,0
2019-01-28T15:19:23.215Z,0
2019-01-28T15:20:03.785Z,0
2019-01-28T15:20:44.339Z,0